Time;durP1;ratioP1;P1;durP2;ratioP2;P2;SDS_P1;SDS_P2;PMS_P1;PMS_P2;Temp;Humidity;BMP_temperature;BMP_pressure;BME280_temperature;BME280_humidity;BME280_pressure;Samples;Min_cycle;Max_cycle;Signal;HPM_P1;HPM_P2
2022/03/30 00:02:58;;;;;;;33.70;22.00;;;;;;;9.74;54.41;98085.45;233262;1219;139280;-58
2022/03/30 00:08:02;;;;;;;30.70;21.20;;;;;;;9.75;54.24;98085.89;232943;1218;140169;-62
2022/03/30 00:13:05;;;;;;;35.10;21.30;;;;;;;9.73;54.04;98085.68;232939;1219;139520;-61
2022/03/30 00:18:08;;;;;;;29.30;20.70;;;;;;;9.74;53.78;98091.98;233031;1219;141505;-58
2022/03/30 00:23:12;;;;;;;32.30;21.30;;;;;;;9.73;53.71;98085.11;232954;1219;139151;-58
2022/03/30 00:28:15;;;;;;;31.20;20.40;;;;;;;9.72;53.59;98075.79;232899;1220;140088;-58
2022/03/30 00:33:18;;;;;;;30.20;20.50;;;;;;;9.73;53.29;98069.02;233261;1219;139903;-58
2022/03/30 00:38:21;;;;;;;33.10;20.20;;;;;;;9.70;52.68;98060.72;233080;1219;139617;-58
2022/03/30 00:43:24;;;;;;;30.10;20.60;;;;;;;9.68;52.85;98057.48;233094;1219;139717;-57
2022/03/30 00:48:27;;;;;;;30.50;19.30;;;;;;;9.66;52.56;98051.10;233075;1220;139748;-59
2022/03/30 00:53:31;;;;;;;30.00;19.70;;;;;;;9.64;52.65;98050.34;233025;1220;138947;-58
2022/03/30 00:58:35;;;;;;;31.90;20.20;;;;;;;9.64;52.40;98048.23;233133;1219;140183;-58
2022/03/30 01:03:38;;;;;;;28.30;19.80;;;;;;;9.64;52.10;98048.20;232987;1220;139926;-59
2022/03/30 01:08:42;;;;;;;30.80;19.40;;;;;;;9.63;52.09;98047.58;232859;1220;140125;-58
2022/03/30 01:13:45;;;;;;;31.30;19.90;;;;;;;9.62;52.27;98047.85;233139;1220;139605;-58
2022/03/30 01:19:10;;;;;;;30.30;20.10;;;;;;;9.61;52.38;98040.98;233143;1220;139291;-58
2022/03/30 01:24:13;;;;;;;34.60;21.20;;;;;;;9.60;52.25;98035.59;232848;1218;139926;-58
2022/03/30 01:34:38;;;;;;;34.20;22.00;;;;;;;9.59;52.20;98028.11;233092;1220;139245;-58
2022/03/30 01:39:42;;;;;;;33.00;21.70;;;;;;;9.59;52.34;98025.56;233021;1220;139882;-56
2022/03/30 01:44:45;;;;;;;37.70;22.90;;;;;;;9.59;52.43;98019.26;233091;1220;139224;-59
2022/03/30 01:49:48;;;;;;;34.70;22.80;;;;;;;9.53;52.70;98013.30;233042;1220;139339;-58
2022/03/30 01:54:51;;;;;;;38.00;23.20;;;;;;;9.51;52.82;98008.88;232976;1220;139088;-55
2022/03/30 01:59:54;;;;;;;37.40;24.30;;;;;;;9.51;52.95;98002.67;233211;1220;139473;-57
2022/03/30 02:04:58;;;;;;;35.20;21.60;;;;;;;9.49;53.13;97997.63;233201;1220;140139;-57
2022/03/30 02:10:01;;;;;;;33.80;23.40;;;;;;;9.43;53.36;97994.69;233117;1220;139139;-57
2022/03/30 02:15:08;;;;;;;38.10;24.00;;;;;;;9.42;53.32;97992.20;233045;1220;140256;-59
2022/03/30 02:20:11;;;;;;;39.70;24.30;;;;;;;9.41;53.20;97989.55;233068;1220;139160;-59
2022/03/30 02:25:14;;;;;;;38.40;24.70;;;;;;;9.43;53.31;97983.74;233085;1219;139163;-59
2022/03/30 02:30:17;;;;;;;36.40;23.20;;;;;;;9.43;53.23;97977.90;233113;1219;139557;-59
2022/03/30 02:35:21;;;;;;;39.70;25.60;;;;;;;9.39;53.55;97974.31;233000;1220;139524;-59
2022/03/30 02:40:24;;;;;;;36.00;25.00;;;;;;;9.35;53.42;97970.16;233292;1219;140679;-59
2022/03/30 02:45:27;;;;;;;36.90;24.90;;;;;;;9.35;53.61;97967.71;232849;1220;139362;-57
2022/03/30 02:50:30;;;;;;;45.10;26.60;;;;;;;9.31;53.66;97966.95;233031;1220;139348;-57
2022/03/30 02:55:33;;;;;;;47.10;27.50;;;;;;;9.29;53.92;97965.52;233045;1220;139504;-58
2022/03/30 03:00:35;;;;;;;46.50;26.70;;;;;;;9.23;54.29;97965.21;232982;1220;138865;-57
2022/03/30 03:05:41;;;;;;;54.20;27.70;;;;;;;9.17;54.72;97969.91;233007;1219;140328;-58
2022/03/30 03:10:45;;;;;;;49.70;26.40;;;;;;;9.14;54.69;97966.09;233001;1220;140183;-58
2022/03/30 03:15:49;;;;;;;51.50;26.80;;;;;;;9.11;55.03;97963.68;232896;1218;139194;-60
2022/03/30 03:20:54;;;;;;;43.20;26.40;;;;;;;9.03;55.34;97961.75;233017;1220;139186;-58
2022/03/30 03:25:57;;;;;;;42.60;27.50;;;;;;;9.03;55.52;97964.75;233070;1220;139761;-59
2022/03/30 03:31:00;;;;;;;42.50;26.90;;;;;;;9.00;55.52;97967.95;232927;1220;139109;-58
2022/03/30 03:36:04;;;;;;;43.10;26.80;;;;;;;9.00;55.68;97968.66;232970;1220;140576;-58
2022/03/30 03:41:07;;;;;;;41.40;27.40;;;;;;;9.00;55.78;97973.99;233001;1220;139823;-58
2022/03/30 03:46:10;;;;;;;48.20;26.70;;;;;;;9.02;56.01;97972.46;233073;1220;139846;-59
2022/03/30 03:51:13;;;;;;;46.60;28.60;;;;;;;9.03;56.34;97970.97;233104;1220;139347;-59
2022/03/30 03:56:16;;;;;;;45.00;27.70;;;;;;;9.05;56.38;97969.59;233262;1219;139712;-54
2022/03/30 04:01:20;;;;;;;49.80;28.60;;;;;;;9.07;56.58;97972.98;233195;1220;140106;-57
2022/03/30 04:06:25;;;;;;;49.90;27.10;;;;;;;9.06;56.66;97975.15;233117;1220;139180;-57
2022/03/30 04:11:28;;;;;;;47.90;27.70;;;;;;;9.07;56.89;97974.69;233085;1220;139244;-59
2022/03/30 04:16:31;;;;;;;44.30;27.10;;;;;;;9.14;57.12;97972.60;233234;1220;140113;-60
2022/03/30 04:21:34;;;;;;;45.40;27.60;;;;;;;9.18;57.12;97969.48;232873;1220;139173;-59
2022/03/30 04:26:38;;;;;;;45.10;27.50;;;;;;;9.17;57.20;97965.83;233071;1218;139337;-57
2022/03/30 04:31:41;;;;;;;41.10;27.20;;;;;;;9.16;57.20;97964.14;233020;1220;140528;-58
2022/03/30 04:36:44;;;;;;;46.50;27.20;;;;;;;9.14;57.07;97966.81;232729;1219;139322;-58
2022/03/30 04:41:47;;;;;;;42.60;25.90;;;;;;;9.08;57.33;97968.98;233140;1219;140478;-59
2022/03/30 04:46:51;;;;;;;47.00;28.60;;;;;;;9.00;57.28;97968.37;233149;1219;139453;-59
2022/03/30 04:51:54;;;;;;;43.20;28.30;;;;;;;8.90;57.41;97969.45;233135;1219;140929;-58
2022/03/30 04:56:57;;;;;;;43.70;26.50;;;;;;;8.86;57.56;97963.56;232990;1220;138933;-57
2022/03/30 05:02:00;;;;;;;40.50;26.50;;;;;;;8.81;57.59;97959.11;232982;1219;142022;-59
2022/03/30 05:07:03;;;;;;;45.20;27.60;;;;;;;8.76;57.62;97960.31;233050;1220;139313;-59
2022/03/30 05:12:06;;;;;;;46.30;28.30;;;;;;;8.73;57.62;97959.09;232904;1218;139874;-59
2022/03/30 05:17:10;;;;;;;43.90;28.00;;;;;;;8.69;57.57;97960.16;232974;1218;139605;-58
2022/03/30 05:22:13;;;;;;;45.90;28.00;;;;;;;8.61;57.73;97959.51;233142;1219;140149;-58
2022/03/30 05:27:16;;;;;;;46.00;28.90;;;;;;;8.58;57.75;97965.39;233056;1219;139272;-59
2022/03/30 05:32:19;;;;;;;48.40;28.70;;;;;;;8.58;57.79;97967.13;232897;1219;140013;-60
2022/03/30 05:37:24;;;;;;;46.20;28.90;;;;;;;8.64;58.19;97969.15;233062;1220;139023;-60
2022/03/30 05:42:27;;;;;;;52.60;30.10;;;;;;;8.73;58.46;97972.02;233007;1219;141284;-58
2022/03/30 05:47:30;;;;;;;44.80;27.80;;;;;;;8.85;58.24;97970.69;232991;1220;141125;-58
2022/03/30 05:52:33;;;;;;;45.20;29.30;;;;;;;8.99;58.32;97971.24;233032;1219;139662;-56
2022/03/30 05:57:37;;;;;;;48.40;28.80;;;;;;;9.10;58.04;97975.42;232995;1219;139178;-58
2022/03/30 06:02:40;;;;;;;52.80;30.30;;;;;;;9.17;58.07;97972.94;233069;1219;139081;-59
2022/03/30 06:07:43;;;;;;;44.60;29.80;;;;;;;9.25;57.92;97970.44;232931;1219;138950;-61
2022/03/30 06:12:46;;;;;;;42.40;29.40;;;;;;;9.34;58.03;97972.02;233100;1219;143121;-56
2022/03/30 06:17:51;;;;;;;45.90;28.90;;;;;;;9.41;57.85;97972.92;232943;1219;139554;-56
2022/03/30 06:22:55;;;;;;;47.80;29.20;;;;;;;9.45;57.66;97969.30;233210;1219;139273;-58
2022/03/30 06:27:58;;;;;;;46.70;29.60;;;;;;;9.45;57.64;97965.87;233035;1219;139415;-59
2022/03/30 06:33:02;;;;;;;55.20;29.90;;;;;;;9.50;57.58;97970.33;232897;1219;139329;-61
2022/03/30 06:38:06;;;;;;;48.60;29.60;;;;;;;9.56;57.56;97965.42;233166;1219;139619;-61
2022/03/30 06:43:09;;;;;;;44.60;29.50;;;;;;;9.63;57.36;97965.05;233086;1219;139354;-61
2022/03/30 06:48:13;;;;;;;47.10;29.70;;;;;;;9.70;57.46;97965.94;233066;1219;139589;-60
2022/03/30 06:53:16;;;;;;;47.80;29.90;;;;;;;9.79;57.38;97964.21;232977;1219;138883;-60
2022/03/30 06:58:19;;;;;;;50.70;29.70;;;;;;;9.87;57.09;97966.11;233046;1219;142069;-59
2022/03/30 07:03:25;;;;;;;48.30;28.20;;;;;;;9.94;57.10;97971.71;232884;1219;139296;-59
2022/03/30 07:13:52;;;;;;;35.50;18.90;;;;;;;10.13;56.51;97961.58;233057;1219;139959;-57
2022/03/30 07:18:55;;;;;;;64.90;42.50;;;;;;;10.37;57.01;97969.14;233004;1219;139870;-57
2022/03/30 07:23:58;;;;;;;48.70;26.70;;;;;;;10.56;56.34;97968.70;232868;1219;143424;-57
2022/03/30 07:29:02;;;;;;;174.60;112.70;;;;;;;10.62;55.48;97963.61;233145;1219;139410;-59
2022/03/30 07:34:05;;;;;;;114.60;74.20;;;;;;;10.72;55.64;97967.86;232776;1218;140889;-58
2022/03/30 07:39:08;;;;;;;48.20;28.50;;;;;;;10.85;55.34;97962.02;232921;1219;140880;-57
2022/03/30 07:44:12;;;;;;;45.90;26.80;;;;;;;10.92;54.74;97954.49;233036;1219;141771;-59
2022/03/30 07:49:16;;;;;;;41.20;24.50;;;;;;;10.98;54.17;97947.77;232848;1219;141072;-58
2022/03/30 07:54:20;;;;;;;78.00;45.90;;;;;;;11.07;54.07;97949.05;232863;1219;140043;-58
2022/03/30 07:59:23;;;;;;;37.00;23.00;;;;;;;11.17;53.80;97954.42;232842;1220;139968;-57
2022/03/30 08:04:26;;;;;;;39.20;21.90;;;;;;;11.24;53.03;97955.57;233029;1219;139186;-56
2022/03/30 08:09:29;;;;;;;40.90;22.00;;;;;;;11.34;52.98;97956.05;232881;1219;140326;-58
2022/03/30 08:14:32;;;;;;;31.50;21.30;;;;;;;11.44;52.36;97946.31;232842;1219;139746;-57
2022/03/30 08:19:36;;;;;;;36.70;22.00;;;;;;;11.52;51.52;97948.84;232945;1219;140136;-58
2022/03/30 08:24:46;;;;;;;37.50;22.40;;;;;;;11.58;51.81;97946.59;232861;1219;139704;-57
2022/03/30 08:29:51;;;;;;;31.10;20.50;;;;;;;11.62;51.36;97939.49;232933;1219;139197;-57
2022/03/30 08:34:55;;;;;;;32.10;19.80;;;;;;;11.64;50.87;97940.73;232896;1219;139696;-58
2022/03/30 08:39:58;;;;;;;39.80;24.60;;;;;;;11.69;50.23;97933.79;232973;1219;140114;-58
2022/03/30 08:45:06;;;;;;;36.30;24.80;;;;;;;11.75;50.20;97932.73;232956;1219;139732;-57
2022/03/30 08:50:09;;;;;;;43.00;26.10;;;;;;;11.83;50.19;97927.79;233002;1219;141537;-57
2022/03/30 08:55:13;;;;;;;44.00;26.10;;;;;;;11.91;49.98;97923.62;232878;1219;139887;-58
2022/03/30 09:00:19;;;;;;;47.50;25.40;;;;;;;11.99;49.65;97920.38;232970;1219;139596;-57
2022/03/30 09:05:25;;;;;;;42.80;25.50;;;;;;;12.09;49.61;97921.48;232912;1219;140155;-57
2022/03/30 09:10:31;;;;;;;39.60;26.40;;;;;;;12.18;49.63;97920.17;233042;1219;139838;-57
2022/03/30 09:15:36;;;;;;;47.20;26.40;;;;;;;12.27;49.14;97915.08;232914;1219;139844;-57
2022/03/30 09:20:42;;;;;;;42.10;26.00;;;;;;;12.39;49.11;97912.96;232925;1219;139515;-58
2022/03/30 09:25:47;;;;;;;;;;;;;;;12.51;48.51;97917.15;233134;1219;139607;-56
2022/03/30 09:30:51;;;;;;;43.70;23.80;;;;;;;12.60;48.70;97910.66;233529;1219;125556;-58
2022/03/30 09:35:54;;;;;;;47.50;24.40;;;;;;;12.71;48.28;97903.77;232972;1219;139470;-57
2022/03/30 09:41:03;;;;;;;244.20;152.10;;;;;;;12.87;48.33;97894.14;233008;1219;140009;-57
2022/03/30 09:46:08;;;;;;;43.10;26.40;;;;;;;13.05;47.88;97889.66;232781;1219;140633;-54
2022/03/30 09:51:12;;;;;;;34.70;22.90;;;;;;;13.16;47.95;97878.76;232967;1219;139228;-56
2022/03/30 09:56:21;;;;;;;41.10;22.70;;;;;;;13.26;47.32;97874.80;232882;1219;139547;-56
2022/03/30 10:01:32;;;;;;;36.70;21.70;;;;;;;13.44;46.87;97872.80;232859;1219;140617;-56
2022/03/30 10:06:40;;;;;;;36.40;22.00;;;;;;;13.59;46.52;97865.73;232710;1219;140018;-56
2022/03/30 10:11:48;;;;;;;37.20;22.10;;;;;;;13.73;46.39;97849.19;232755;1219;139556;-58
2022/03/30 10:16:51;;;;;;;40.40;20.50;;;;;;;13.89;45.89;97850.17;232998;1219;139668;-57
2022/03/30 10:22:01;;;;;;;165.50;111.20;;;;;;;13.97;45.81;97841.10;232790;1219;139405;-56
2022/03/30 10:27:26;;;;;;;30.80;20.50;;;;;;;14.22;45.34;97835.09;232882;1219;139289;-55
2022/03/30 10:32:37;;;;;;;33.50;20.30;;;;;;;14.41;44.93;97830.52;232765;1220;140137;-57
2022/03/30 10:37:43;;;;;;;32.70;21.10;;;;;;;14.56;44.59;97823.25;232811;1219;139658;-55
2022/03/30 10:42:46;;;;;;;34.90;20.70;;;;;;;14.67;44.45;97815.61;232854;1219;139937;-55
2022/03/30 10:48:20;;;;;;;30.60;19.50;;;;;;;14.95;46.04;97812.95;232707;1220;140310;-57
2022/03/30 10:53:32;;;;;;;34.90;22.40;;;;;;;15.97;45.76;97802.06;232828;1219;139896;-58
2022/03/30 10:58:38;;;;;;;32.40;21.10;;;;;;;16.05;43.70;97793.34;233057;1219;139795;-58
2022/03/30 11:04:17;;;;;;;32.80;21.20;;;;;;;16.03;43.09;97792.19;232924;1219;139247;-58
2022/03/30 11:09:23;;;;;;;175.00;136.60;;;;;;;15.96;42.20;97783.80;232969;1219;140151;-57
2022/03/30 11:14:34;;;;;;;35.70;23.20;;;;;;;15.93;42.50;97769.56;232873;1219;140717;-56
2022/03/30 11:19:46;;;;;;;31.60;18.10;;;;;;;16.07;42.08;97769.16;232953;1219;139829;-58
2022/03/30 11:25:24;;;;;;;32.40;18.90;;;;;;;16.08;41.38;97770.14;233034;1219;139393;-58
2022/03/30 11:30:29;;;;;;;30.60;18.50;;;;;;;16.09;41.26;97762.70;232729;1220;139963;-56
2022/03/30 11:35:35;;;;;;;29.50;19.50;;;;;;;16.21;41.30;97762.57;232725;1219;139488;-57
2022/03/30 11:40:42;;;;;;;28.70;19.40;;;;;;;16.24;40.65;97755.37;233161;1219;141656;-57
2022/03/30 11:45:46;;;;;;;31.70;19.30;;;;;;;16.26;40.61;97749.41;232993;1219;139204;-57
2022/03/30 11:50:56;;;;;;;29.70;18.80;;;;;;;16.30;40.47;97739.73;232869;1219;139159;-57
2022/03/30 11:56:05;;;;;;;31.40;17.30;;;;;;;16.30;40.29;97730.56;232977;1219;140493;-55
2022/03/30 12:01:13;;;;;;;29.40;17.50;;;;;;;16.42;40.32;97730.08;232924;1219;140324;-57
2022/03/30 12:06:18;;;;;;;24.90;16.80;;;;;;;16.50;39.95;97726.89;232858;1219;139376;-59
2022/03/30 12:11:23;;;;;;;26.80;17.00;;;;;;;16.51;39.51;97725.36;233005;1219;139328;-56
2022/03/30 12:16:32;;;;;;;30.50;16.90;;;;;;;16.46;39.10;97724.83;232973;1219;140202;-57
2022/03/30 12:21:38;;;;;;;29.00;16.90;;;;;;;16.45;39.14;97718.40;232863;1219;139728;-56
2022/03/30 12:26:48;;;;;;;25.60;16.80;;;;;;;16.43;38.88;97709.92;232848;1219;140513;-58
2022/03/30 12:31:54;;;;;;;28.20;16.60;;;;;;;16.38;39.01;97703.08;233024;1220;139684;-57
2022/03/30 12:37:00;;;;;;;29.30;17.20;;;;;;;16.32;38.63;97692.98;232831;1219;139483;-58
2022/03/30 12:42:04;;;;;;;27.60;17.70;;;;;;;16.22;38.62;97684.09;232895;1219;139089;-57
2022/03/30 12:47:38;;;;;;;32.60;16.50;;;;;;;16.30;38.82;97679.73;232948;1219;139831;-58
2022/03/30 12:52:48;;;;;;;;;;;;;;;16.40;38.63;97673.93;233063;1219;141915;-56
2022/03/30 12:57:55;;;;;;;29.40;17.20;;;;;;;16.61;40.58;97673.34;232934;1219;125684;-56
2022/03/30 13:03:06;;;;;;;25.00;16.50;;;;;;;17.11;41.37;97665.23;232938;1219;139112;-56
2022/03/30 13:08:16;;;;;;;27.00;16.90;;;;;;;17.70;40.45;97657.14;232844;1219;139735;-56
2022/03/30 13:13:23;;;;;;;29.30;16.50;;;;;;;17.83;39.59;97652.27;232789;1219;140132;-57
2022/03/30 13:18:27;;;;;;;26.20;16.30;;;;;;;18.00;39.26;97645.86;232801;1220;139689;-57
2022/03/30 13:23:50;;;;;;;34.50;24.60;;;;;;;17.94;38.46;97641.21;232776;1220;139307;-55
2022/03/30 13:28:53;;;;;;;24.80;18.30;;;;;;;18.02;38.55;97632.39;232801;1219;139217;-57
2022/03/30 13:33:59;;;;;;;25.80;17.80;;;;;;;18.15;38.47;97624.72;232931;1219;139626;-56
2022/03/30 13:39:04;;;;;;;26.80;18.10;;;;;;;18.15;37.80;97622.21;232915;1219;139575;-57
2022/03/30 13:44:07;;;;;;;24.40;17.00;;;;;;;18.10;37.66;97617.58;232920;1219;139586;-55
2022/03/30 13:49:40;;;;;;;25.40;14.30;;;;;;;17.96;37.19;97618.86;232812;1221;139911;-55
2022/03/30 13:54:40;;;;;;;22.80;13.50;;;;;;;18.02;37.29;97615.34;232640;1221;139452;-54
2022/03/30 13:59:44;;;;;;;24.30;14.60;;;;;;;18.14;37.66;97602.44;232856;1219;139072;-54
2022/03/30 14:04:47;;;;;;;22.00;14.60;;;;;;;18.11;37.11;97597.79;233005;1219;139905;-56
2022/03/30 14:09:52;;;;;;;23.10;14.00;;;;;;;18.10;37.14;97598.19;232850;1219;141525;-56
2022/03/30 14:14:55;;;;;;;25.70;14.70;;;;;;;18.10;37.02;97593.54;232879;1220;139397;-55
2022/03/30 14:19:58;;;;;;;179.10;137.40;;;;;;;17.97;36.81;97584.84;232846;1219;139908;-57
2022/03/30 14:25:02;;;;;;;42.10;28.20;;;;;;;17.78;36.49;97574.29;233034;1219;140091;-56
2022/03/30 14:30:08;;;;;;;29.40;17.30;;;;;;;17.66;36.49;97571.20;232887;1219;139676;-56
2022/03/30 14:35:11;;;;;;;24.80;17.30;;;;;;;17.26;35.96;97570.93;232728;1220;140820;-54
2022/03/30 14:40:21;;;;;;;27.90;17.00;;;;;;;16.71;36.11;97565.65;232787;1220;141019;-56
2022/03/30 14:45:24;;;;;;;25.30;17.30;;;;;;;16.23;36.27;97573.13;232852;1219;139516;-55
2022/03/30 14:50:28;;;;;;;26.30;17.00;;;;;;;15.84;36.39;97576.98;232863;1219;141880;-55
2022/03/30 14:55:31;;;;;;;155.30;128.10;;;;;;;15.57;36.62;97572.36;232848;1220;139582;-57
2022/03/30 15:00:35;;;;;;;26.70;17.50;;;;;;;15.35;36.96;97571.84;232872;1220;142151;-54
2022/03/30 15:05:40;;;;;;;30.90;17.10;;;;;;;15.10;37.16;97563.73;233002;1220;139369;-55
2022/03/30 15:10:43;;;;;;;28.70;17.60;;;;;;;14.95;37.57;97560.50;232904;1220;139100;-56
2022/03/30 15:15:46;;;;;;;26.50;16.30;;;;;;;14.81;37.67;97548.47;232874;1220;138815;-55
2022/03/30 15:20:49;;;;;;;29.40;16.50;;;;;;;14.66;37.67;97549.39;232847;1219;139600;-53
2022/03/30 15:25:52;;;;;;;28.00;16.30;;;;;;;14.47;37.94;97544.09;232884;1220;139772;-55
2022/03/30 15:30:55;;;;;;;28.90;15.40;;;;;;;14.32;38.18;97544.63;232883;1219;139635;-55
2022/03/30 15:36:00;;;;;;;54.60;42.00;;;;;;;14.19;38.52;97540.77;232914;1218;139579;-56
2022/03/30 15:41:03;;;;;;;148.90;97.40;;;;;;;14.12;39.22;97539.14;232941;1220;139333;-55
2022/03/30 15:46:06;;;;;;;34.70;19.90;;;;;;;14.08;39.91;97534.92;232803;1220;141810;-56
2022/03/30 15:51:11;;;;;;;29.20;16.90;;;;;;;14.01;40.29;97538.40;232804;1220;139391;-57
2022/03/30 15:56:14;;;;;;;26.90;16.30;;;;;;;13.89;40.79;97541.00;232909;1220;140010;-56
2022/03/30 16:01:17;;;;;;;27.40;16.30;;;;;;;13.75;41.50;97545.64;232983;1219;141918;-57
2022/03/30 16:06:21;;;;;;;228.50;169.60;;;;;;;13.62;41.93;97541.56;233016;1219;139572;-57
2022/03/30 16:16:48;;;;;;;25.70;16.90;;;;;;;13.38;42.76;97533.38;232845;1220;139566;-58
2022/03/30 16:21:52;;;;;;;31.20;19.90;;;;;;;13.28;43.76;97527.67;232876;1220;142940;-57
2022/03/30 16:26:57;;;;;;;27.60;18.90;;;;;;;13.17;44.21;97526.20;232760;1220;139420;-56
2022/03/30 16:32:00;;;;;;;25.90;17.50;;;;;;;13.02;44.82;97528.00;232654;1220;139341;-57
2022/03/30 16:37:04;;;;;;;184.20;142.00;;;;;;;12.89;45.30;97534.73;232953;1220;139609;-57
2022/03/30 16:42:08;;;;;;;57.90;38.10;;;;;;;12.85;45.93;97532.97;232885;1220;141212;-53
2022/03/30 16:47:11;;;;;;;30.30;20.60;;;;;;;12.79;45.77;97524.86;232968;1220;139893;-55
2022/03/30 16:52:14;;;;;;;35.00;23.70;;;;;;;12.68;45.86;97519.80;232851;1220;139357;-56
2022/03/30 16:57:17;;;;;;;31.90;21.70;;;;;;;12.65;46.64;97520.11;232885;1220;140311;-60
2022/03/30 17:02:20;;;;;;;32.80;20.60;;;;;;;12.65;47.20;97516.27;232859;1220;139925;-57
2022/03/30 17:07:23;;;;;;;31.90;20.50;;;;;;;12.59;46.64;97518.98;232839;1220;139616;-57
2022/03/30 17:12:28;;;;;;;32.80;21.70;;;;;;;12.52;47.06;97518.83;232863;1219;139879;-57
2022/03/30 17:17:31;;;;;;;30.80;19.60;;;;;;;12.47;47.45;97520.42;232909;1220;140559;-55
2022/03/30 17:22:35;;;;;;;34.40;21.10;;;;;;;12.43;47.66;97519.23;233000;1221;138783;-55
2022/03/30 17:27:38;;;;;;;31.30;21.00;;;;;;;12.40;47.75;97521.98;232835;1220;140337;-57
2022/03/30 17:32:41;;;;;;;32.30;20.90;;;;;;;12.37;47.91;97513.52;232827;1220;139970;-55
2022/03/30 17:37:44;;;;;;;33.40;22.00;;;;;;;12.33;48.53;97513.38;232751;1220;140119;-56
2022/03/30 17:42:50;;;;;;;33.60;22.30;;;;;;;12.27;49.03;97511.97;232872;1220;140239;-56
2022/03/30 17:47:53;;;;;;;35.00;23.70;;;;;;;12.21;49.69;97508.48;232835;1220;139452;-58
2022/03/30 17:52:57;;;;;;;32.10;23.20;;;;;;;12.16;50.26;97504.29;232956;1220;139691;-56
2022/03/30 17:58:01;;;;;;;35.90;24.50;;;;;;;12.13;50.77;97501.59;232884;1220;140383;-57
2022/03/30 18:03:04;;;;;;;37.60;25.30;;;;;;;12.08;51.52;97500.28;232788;1220;140130;-55
2022/03/30 18:08:08;;;;;;;42.90;26.40;;;;;;;12.02;51.88;97504.36;232801;1220;140577;-57
2022/03/30 18:13:15;;;;;;;38.90;26.50;;;;;;;11.96;52.02;97504.23;232825;1220;139501;-57
2022/03/30 18:18:18;;;;;;;40.70;27.10;;;;;;;11.89;52.88;97507.03;232878;1220;139297;-57
2022/03/30 18:23:21;;;;;;;39.50;27.60;;;;;;;11.81;52.97;97503.11;232915;1220;139733;-56
2022/03/30 18:28:24;;;;;;;42.70;28.10;;;;;;;11.76;53.83;97503.30;232919;1220;139337;-57
2022/03/30 18:33:27;;;;;;;42.60;27.20;;;;;;;11.72;54.23;97505.12;232920;1220;139920;-56
2022/03/30 18:38:31;;;;;;;44.30;29.30;;;;;;;11.68;54.42;97503.02;232855;1220;140055;-55
2022/03/30 18:43:35;;;;;;;72.70;50.80;;;;;;;11.69;55.25;97505.41;232826;1220;139473;-57
2022/03/30 18:48:38;;;;;;;48.30;31.60;;;;;;;11.74;55.24;97498.05;232939;1220;142028;-58
2022/03/30 18:53:42;;;;;;;51.90;32.00;;;;;;;11.68;55.36;97495.70;232946;1220;140949;-58
2022/03/30 18:58:45;;;;;;;47.40;29.20;;;;;;;11.64;55.69;97493.98;233078;1220;140368;-56
2022/03/30 19:03:48;;;;;;;49.10;29.90;;;;;;;11.64;55.83;97489.92;232919;1219;139750;-56
2022/03/30 19:08:52;;;;;;;52.00;32.00;;;;;;;11.65;55.77;97485.55;232998;1220;139621;-56
2022/03/30 19:13:55;;;;;;;50.60;31.60;;;;;;;11.65;56.15;97483.18;232841;1220;139504;-56
2022/03/30 19:18:58;;;;;;;48.30;31.40;;;;;;;11.59;56.32;97484.77;232990;1219;140367;-57
2022/03/30 19:24:01;;;;;;;49.20;29.80;;;;;;;11.51;56.38;97480.89;233040;1219;139672;-57
2022/03/30 19:29:04;;;;;;;45.40;29.60;;;;;;;11.44;56.68;97482.45;233071;1219;140127;-57
2022/03/30 19:34:07;;;;;;;44.10;27.10;;;;;;;11.37;56.81;97469.94;232818;1219;139968;-58
2022/03/30 19:39:10;;;;;;;44.10;28.10;;;;;;;11.30;56.95;97461.49;232961;1219;139600;-57
2022/03/30 19:44:13;;;;;;;41.40;27.40;;;;;;;11.22;57.22;97458.71;232887;1219;139789;-57
2022/03/30 19:49:18;;;;;;;43.20;28.60;;;;;;;11.14;57.17;97454.83;232920;1219;139457;-60
2022/03/30 19:54:22;;;;;;;40.50;25.70;;;;;;;11.06;57.57;97456.70;232920;1219;139918;-57
2022/03/30 19:59:25;;;;;;;40.50;25.10;;;;;;;11.04;57.54;97450.90;233051;1219;140584;-58
2022/03/30 20:04:28;;;;;;;42.20;25.50;;;;;;;11.06;57.80;97441.67;233487;1219;139885;-58
2022/03/30 20:09:31;;;;;;;40.10;26.80;;;;;;;11.06;57.99;97437.38;233367;1219;140692;-58
2022/03/30 20:14:35;;;;;;;44.80;28.80;;;;;;;11.05;58.13;97432.86;233411;1219;139543;-59
2022/03/30 20:19:39;;;;;;;44.90;29.00;;;;;;;10.99;58.18;97432.34;233452;1219;139183;-59
2022/03/30 20:24:42;;;;;;;44.80;30.60;;;;;;;10.95;58.38;97427.05;233380;1219;234066;-59
2022/03/30 20:29:45;;;;;;;45.60;29.40;;;;;;;10.90;58.61;97424.13;233504;1219;139510;-58
2022/03/30 20:34:49;;;;;;;43.00;30.20;;;;;;;10.83;58.74;97422.06;233689;1219;141105;-59
2022/03/30 20:39:54;;;;;;;43.50;27.30;;;;;;;10.76;58.64;97420.73;233449;1218;140018;-59
2022/03/30 20:44:57;;;;;;;40.90;26.60;;;;;;;10.70;58.99;97421.16;233467;1219;139917;-59
2022/03/30 20:50:01;;;;;;;42.60;27.30;;;;;;;10.67;59.30;97420.83;233331;1218;140166;-59
2022/03/30 20:55:05;;;;;;;43.80;26.70;;;;;;;10.68;59.24;97422.20;233031;1217;139683;-59
2022/03/30 21:00:09;;;;;;;40.00;26.50;;;;;;;10.75;59.62;97420.13;232930;1219;139528;-57
2022/03/30 21:05:14;;;;;;;38.30;25.90;;;;;;;10.79;59.60;97420.35;233028;1219;139364;-59
2022/03/30 21:10:17;;;;;;;40.20;26.30;;;;;;;10.76;59.86;97414.94;232916;1219;139500;-59
2022/03/30 21:15:20;;;;;;;37.50;24.90;;;;;;;10.74;59.68;97408.89;232806;1219;139504;-58
2022/03/30 21:20:24;;;;;;;36.80;24.00;;;;;;;10.68;59.64;97406.79;232806;1219;139684;-58
2022/03/30 21:25:27;;;;;;;37.10;24.10;;;;;;;10.60;59.82;97412.04;232970;1219;139318;-59
2022/03/30 21:30:30;;;;;;;39.40;24.20;;;;;;;10.54;59.73;97406.23;232911;1219;140784;-59
2022/03/30 21:35:33;;;;;;;36.70;22.80;;;;;;;10.50;59.97;97400.05;232905;1219;141030;-59
2022/03/30 21:40:37;;;;;;;38.40;22.90;;;;;;;10.47;59.97;97389.83;232968;1218;140518;-57
2022/03/30 21:45:40;;;;;;;35.70;23.10;;;;;;;10.49;60.14;97391.23;232958;1219;140354;-58
2022/03/30 21:50:43;;;;;;;39.90;25.40;;;;;;;10.52;60.36;97388.52;232938;1219;139851;-59
2022/03/30 21:55:47;;;;;;;37.60;25.40;;;;;;;10.53;60.34;97388.55;232875;1219;139397;-58
2022/03/30 22:00:50;;;;;;;38.00;25.30;;;;;;;10.53;60.65;97386.09;232865;1220;141166;-58
2022/03/30 22:05:54;;;;;;;40.20;25.70;;;;;;;10.48;60.64;97383.89;232984;1220;141240;-58
2022/03/30 22:10:57;;;;;;;38.00;25.40;;;;;;;10.43;60.83;97390.38;233038;1219;139941;-59
2022/03/30 22:16:01;;;;;;;42.10;26.10;;;;;;;10.38;60.76;97391.26;233150;1219;139445;-59
2022/03/30 22:21:04;;;;;;;38.30;25.80;;;;;;;10.35;60.57;97384.31;232963;1219;140160;-58
2022/03/30 22:26:07;;;;;;;37.20;24.30;;;;;;;10.32;60.87;97376.28;233072;1219;139687;-58
2022/03/30 22:36:32;;;;;;;41.70;27.80;;;;;;;10.34;61.15;97361.16;232649;1220;139822;-58
2022/03/30 22:41:35;;;;;;;37.70;25.80;;;;;;;10.35;61.18;97361.44;232796;1220;139299;-58
2022/03/30 22:46:38;;;;;;;41.40;27.20;;;;;;;10.33;61.10;97357.20;232960;1220;139195;-58
2022/03/30 22:51:41;;;;;;;40.90;26.30;;;;;;;10.31;61.09;97356.16;232885;1219;139577;-57
2022/03/30 22:56:44;;;;;;;42.20;26.10;;;;;;;10.28;61.34;97354.42;232917;1219;142743;-57
2022/03/30 23:01:47;;;;;;;39.20;26.30;;;;;;;10.21;61.33;97350.38;232925;1219;139258;-58
2022/03/30 23:12:12;;;;;;;34.80;24.60;;;;;;;10.05;61.34;97346.82;232944;1219;139392;-59
2022/03/30 23:17:15;;;;;;;34.90;23.90;;;;;;;9.99;61.29;97353.77;232885;1219;139440;-58
2022/03/30 23:22:18;;;;;;;36.50;24.30;;;;;;;9.95;61.49;97357.96;232841;1220;140383;-57